EDT,Max TemperatureF,Mean TemperatureF,Min TemperatureF,Max Dew PointF,MeanDew PointF,Min DewpointF,Max Humidity, Mean Humidity, Min Humidity, Max Sea Level PressureIn, Mean Sea Level PressureIn, Min Sea Level PressureIn, Max VisibilityMiles, Mean VisibilityMiles, Min VisibilityMiles, Max Wind SpeedMPH, Mean Wind SpeedMPH, Max Gust SpeedMPH,PrecipitationIn, CloudCover, Events, WindDirDegrees
2012-10-1,73,68,64,73,68,64,100,100,100,29.88,29.83,29.78,10,4,0,13,7,,0.00,8,Fog-Rain,68
2012-10-2,86,80,73,77,74,68,100,85,55,29.98,29.85,29.77,10,9,5,12,7,20,0.00,5,Rain,178
2012-10-3,80,74,69,73,70,68,100,87,65,30.22,30.10,29.99,10,10,5,6,1,,0.00,2,Rain,255
2012-10-4,80,74,68,70,69,66,100,89,61,30.27,30.22,30.18,10,10,2,6,1,,0.00,3,Rain,217
2012-10-5,82,73,64,70,64,59,100,77,45,30.22,30.14,30.05,10,9,0,8,4,,0.00,0,Fog,119
2012-10-6,87,74,62,68,64,57,100,74,37,30.05,29.98,29.90,10,9,1,13,3,16,0.00,0,,221
2012-10-7,77,68,59,68,63,55,100,86,65,30.10,30.01,29.95,10,10,5,10,3,16,0.00,3,Thunderstorm,18
2012-10-8,59,55,51,55,52,50,100,87,82,30.18,30.13,30.09,10,10,7,15,8,20,0.00,8,,24
2012-10-9,57,54,50,54,52,50,100,95,82,30.19,30.14,30.10,10,8,4,8,3,,0.00,7,,348
2012-10-10,75,60,46,61,54,46,100,84,53,30.14,30.10,30.04,10,8,0,10,2,16,0.00,2,Fog,276
2012-10-11,73,62,51,57,50,45,100,68,38,30.31,30.23,30.15,10,10,10,14,4,,0.00,0,,28
2012-10-12,78,66,53,59,55,52,100,70,42,30.29,30.22,30.17,10,10,10,8,3,,0.00,1,,55
2012-10-13,71,62,53,59,53,48,94,70,49,30.45,30.35,30.29,10,10,10,13,6,17,0.00,0,,61
2012-10-14,78,64,51,66,58,52,100,74,54,30.33,30.20,30.06,10,10,10,12,4,,0.00,2,,119
2012-10-15,80,71,60,70,63,46,100,79,39,30.06,29.90,29.77,10,10,10,13,7,20,0.00,2,Rain,222
2012-10-16,73,62,51,48,45,41,82,55,33,30.00,29.93,29.89,10,10,10,10,5,,0.00,0,,32
2012-10-17,75,65,55,52,47,43,82,59,33,30.02,29.95,29.91,10,10,10,9,5,,0.00,0,,151
2012-10-18,80,68,57,64,60,52,100,76,48,29.93,29.85,29.79,10,10,10,13,5,18,0.00,2,Rain,154
2012-10-19,77,67,57,68,44,32,100,50,19,29.84,29.80,29.75,10,10,7,16,6,23,0.00,0,,245
2012-10-20,75,62,50,52,43,34,72,51,33,29.96,29.85,29.81,10,10,10,14,6,18,0.00,0,,250
2012-10-21,73,62,50,50,45,41,82,59,33,30.16,30.08,29.96,10,10,10,9,4,,0.00,0,,34
2012-10-22,78,64,51,52,49,45,88,56,32,30.26,30.19,30.15,10,10,10,6,2,,0.00,0,,134
2012-10-23,80,66,51,55,51,46,94,59,30,30.23,30.17,30.12,10,10,10,7,4,,0.00,0,,181
2012-10-24,82,68,55,64,55,46,100,65,35,30.22,30.16,30.10,10,10,1,7,4,,0.00,0,,151
2012-10-25,82,70,57,64,61,57,100,74,48,30.16,30.11,30.06,10,10,10,12,4,17,0.00,1,,80
2012-10-26,78,69,60,64,61,55,100,78,44,30.08,30.01,29.92,10,10,7,16,6,24,0.00,0,,37
2012-10-27,73,68,64,63,61,54,94,78,60,29.91,29.77,29.68,10,10,7,16,8,26,0.00,3,,2
2012-10-28,73,64,55,55,52,43,77,64,44,29.72,29.67,29.62,10,10,10,16,10,28,0.00,1,,342
2012-10-29,62,52,42,43,36,32,81,57,36,29.70,29.65,29.58,10,10,10,23,9,30,0.00,1,,306
2012-10-30,59,54,48,34,33,32,58,48,36,29.70,29.56,29.50,10,10,10,17,11,26,0.00,0,,273
2012-10-31,66,54,42,34,31,23,61,45,26,29.81,29.74,29.70,10,10,10,17,7,23,0.00,0,,255